sensor_id;sensor_type;location;lat;lon;timestamp;P1;durP1;ratioP1;P2;durP2;ratioP2
10711;SDS011;5407;51.234;6.804;2023-02-15T00:01:46;5.45;;;4.95;;
10711;SDS011;5407;51.234;6.804;2023-02-15T00:04:14;4.65;;;4.25;;
10711;SDS011;5407;51.234;6.804;2023-02-15T00:06:42;4.93;;;4.53;;
10711;SDS011;5407;51.234;6.804;2023-02-15T00:09:09;4.80;;;4.40;;
10711;SDS011;5407;51.234;6.804;2023-02-15T00:11:37;4.72;;;4.32;;
10711;SDS011;5407;51.234;6.804;2023-02-15T00:14:08;4.63;;;4.22;;
10711;SDS011;5407;51.234;6.804;2023-02-15T00:16:37;5.20;;;4.70;;
10711;SDS011;5407;51.234;6.804;2023-02-15T00:19:06;4.63;;;4.22;;
10711;SDS011;5407;51.234;6.804;2023-02-15T00:21:34;4.80;;;4.40;;
10711;SDS011;5407;51.234;6.804;2023-02-15T00:24:03;4.63;;;4.22;;
10711;SDS011;5407;51.234;6.804;2023-02-15T00:26:32;4.75;;;4.35;;
10711;SDS011;5407;51.234;6.804;2023-02-15T00:28:59;4.40;;;4.00;;
10711;SDS011;5407;51.234;6.804;2023-02-15T00:31:27;4.60;;;4.20;;
10711;SDS011;5407;51.234;6.804;2023-02-15T00:34:00;5.13;;;4.72;;
10711;SDS011;5407;51.234;6.804;2023-02-15T00:36:29;5.03;;;4.63;;
10711;SDS011;5407;51.234;6.804;2023-02-15T00:38:56;4.65;;;4.25;;
10711;SDS011;5407;51.234;6.804;2023-02-15T00:41:23;4.72;;;4.32;;
10711;SDS011;5407;51.234;6.804;2023-02-15T00:43:50;4.93;;;4.53;;
10711;SDS011;5407;51.234;6.804;2023-02-15T00:46:16;4.80;;;4.40;;
10711;SDS011;5407;51.234;6.804;2023-02-15T00:48:44;4.70;;;4.30;;
10711;SDS011;5407;51.234;6.804;2023-02-15T00:51:10;4.60;;;4.20;;
10711;SDS011;5407;51.234;6.804;2023-02-15T00:53:39;4.50;;;4.10;;
10711;SDS011;5407;51.234;6.804;2023-02-15T00:56:06;5.10;;;3.88;;
10711;SDS011;5407;51.234;6.804;2023-02-15T00:58:33;4.93;;;4.53;;
10711;SDS011;5407;51.234;6.804;2023-02-15T01:01:02;5.18;;;4.68;;
10711;SDS011;5407;51.234;6.804;2023-02-15T01:03:31;5.05;;;4.65;;
10711;SDS011;5407;51.234;6.804;2023-02-15T01:05:58;5.07;;;4.68;;
10711;SDS011;5407;51.234;6.804;2023-02-15T01:08:29;4.75;;;4.35;;
10711;SDS011;5407;51.234;6.804;2023-02-15T01:11:03;5.05;;;4.65;;
10711;SDS011;5407;51.234;6.804;2023-02-15T01:13:31;5.05;;;4.55;;
10711;SDS011;5407;51.234;6.804;2023-02-15T01:15:58;11.85;;;4.68;;
10711;SDS011;5407;51.234;6.804;2023-02-15T01:18:25;4.82;;;4.43;;
10711;SDS011;5407;51.234;6.804;2023-02-15T01:20:52;4.38;;;3.97;;
10711;SDS011;5407;51.234;6.804;2023-02-15T01:23:19;4.93;;;4.43;;
10711;SDS011;5407;51.234;6.804;2023-02-15T01:25:46;4.38;;;3.97;;
10711;SDS011;5407;51.234;6.804;2023-02-15T01:28:15;4.78;;;4.25;;
10711;SDS011;5407;51.234;6.804;2023-02-15T01:30:42;3.92;;;3.63;;
10711;SDS011;5407;51.234;6.804;2023-02-15T01:33:09;4.25;;;3.92;;
10711;SDS011;5407;51.234;6.804;2023-02-15T01:35:43;4.50;;;4.10;;
10711;SDS011;5407;51.234;6.804;2023-02-15T01:38:10;6.13;;;4.28;;
10711;SDS011;5407;51.234;6.804;2023-02-15T01:40:38;4.10;;;3.80;;
10711;SDS011;5407;51.234;6.804;2023-02-15T01:43:07;5.00;;;4.50;;
10711;SDS011;5407;51.234;6.804;2023-02-15T01:45:38;4.60;;;4.20;;
10711;SDS011;5407;51.234;6.804;2023-02-15T01:48:14;4.63;;;4.22;;
10711;SDS011;5407;51.234;6.804;2023-02-15T01:50:48;4.93;;;4.53;;
10711;SDS011;5407;51.234;6.804;2023-02-15T01:53:20;4.88;;;4.47;;
10711;SDS011;5407;51.234;6.804;2023-02-15T01:55:52;4.90;;;4.40;;
10711;SDS011;5407;51.234;6.804;2023-02-15T01:58:21;4.85;;;4.45;;
10711;SDS011;5407;51.234;6.804;2023-02-15T02:00:51;4.72;;;4.28;;
10711;SDS011;5407;51.234;6.804;2023-02-15T02:03:19;4.50;;;4.10;;
10711;SDS011;5407;51.234;6.804;2023-02-15T02:05:57;4.57;;;4.18;;
10711;SDS011;5407;51.234;6.804;2023-02-15T02:08:24;4.93;;;4.30;;
10711;SDS011;5407;51.234;6.804;2023-02-15T02:10:52;4.25;;;3.90;;
10711;SDS011;5407;51.234;6.804;2023-02-15T02:13:19;5.07;;;4.68;;
10711;SDS011;5407;51.234;6.804;2023-02-15T02:15:47;4.57;;;4.18;;
10711;SDS011;5407;51.234;6.804;2023-02-15T02:18:29;4.50;;;4.10;;
10711;SDS011;5407;51.234;6.804;2023-02-15T02:21:12;4.60;;;4.20;;
10711;SDS011;5407;51.234;6.804;2023-02-15T02:30:02;4.85;;;4.40;;
10711;SDS011;5407;51.234;6.804;2023-02-15T02:33:08;5.90;;;4.35;;
10711;SDS011;5407;51.234;6.804;2023-02-15T02:36:00;4.70;;;4.30;;
10711;SDS011;5407;51.234;6.804;2023-02-15T02:38:37;4.22;;;3.92;;
10711;SDS011;5407;51.234;6.804;2023-02-15T02:41:16;4.60;;;4.20;;
10711;SDS011;5407;51.234;6.804;2023-02-15T02:43:48;4.40;;;4.00;;
10711;SDS011;5407;51.234;6.804;2023-02-15T02:46:22;4.40;;;4.05;;
10711;SDS011;5407;51.234;6.804;2023-02-15T02:48:55;4.68;;;4.28;;
10711;SDS011;5407;51.234;6.804;2023-02-15T02:51:23;4.80;;;4.40;;
10711;SDS011;5407;51.234;6.804;2023-02-15T02:53:51;4.22;;;3.90;;
10711;SDS011;5407;51.234;6.804;2023-02-15T02:56:23;4.22;;;3.92;;
10711;SDS011;5407;51.234;6.804;2023-02-15T02:58:55;4.22;;;3.92;;
10711;SDS011;5407;51.234;6.804;2023-02-15T03:01:27;4.57;;;4.18;;
10711;SDS011;5407;51.234;6.804;2023-02-15T03:04:00;5.20;;;4.70;;
10711;SDS011;5407;51.234;6.804;2023-02-15T03:06:33;4.68;;;4.28;;
10711;SDS011;5407;51.234;6.804;2023-02-15T03:09:08;4.28;;;3.88;;
10711;SDS011;5407;51.234;6.804;2023-02-15T03:11:41;4.80;;;4.40;;
10711;SDS011;5407;51.234;6.804;2023-02-15T03:14:11;4.80;;;4.40;;
10711;SDS011;5407;51.234;6.804;2023-02-15T03:16:40;4.70;;;4.30;;
10711;SDS011;5407;51.234;6.804;2023-02-15T03:19:14;4.68;;;4.28;;
10711;SDS011;5407;51.234;6.804;2023-02-15T03:21:45;5.05;;;4.47;;
10711;SDS011;5407;51.234;6.804;2023-02-15T03:24:23;4.65;;;4.25;;
10711;SDS011;5407;51.234;6.804;2023-02-15T03:26:55;5.55;;;4.97;;
10711;SDS011;5407;51.234;6.804;2023-02-15T03:29:25;4.53;;;4.15;;
10711;SDS011;5407;51.234;6.804;2023-02-15T03:31:56;4.68;;;4.28;;
10711;SDS011;5407;51.234;6.804;2023-02-15T03:34:27;4.63;;;4.22;;
10711;SDS011;5407;51.234;6.804;2023-02-15T03:36:56;4.80;;;4.40;;
10711;SDS011;5407;51.234;6.804;2023-02-15T03:39:27;4.78;;;4.38;;
10711;SDS011;5407;51.234;6.804;2023-02-15T03:42:09;5.28;;;4.78;;
10711;SDS011;5407;51.234;6.804;2023-02-15T03:44:42;4.70;;;4.30;;
10711;SDS011;5407;51.234;6.804;2023-02-15T03:47:17;4.55;;;4.15;;
10711;SDS011;5407;51.234;6.804;2023-02-15T03:49:48;4.65;;;4.20;;
10711;SDS011;5407;51.234;6.804;2023-02-15T03:52:20;4.63;;;4.22;;
10711;SDS011;5407;51.234;6.804;2023-02-15T03:54:48;4.75;;;4.35;;
10711;SDS011;5407;51.234;6.804;2023-02-15T03:57:17;4.35;;;4.05;;
10711;SDS011;5407;51.234;6.804;2023-02-15T04:00:04;5.03;;;4.53;;
10711;SDS011;5407;51.234;6.804;2023-02-15T04:05:50;4.35;;;3.95;;
10711;SDS011;5407;51.234;6.804;2023-02-15T04:08:17;4.85;;;4.45;;
10711;SDS011;5407;51.234;6.804;2023-02-15T04:10:43;4.60;;;4.25;;
10711;SDS011;5407;51.234;6.804;2023-02-15T04:13:20;4.53;;;4.13;;
10711;SDS011;5407;51.234;6.804;2023-02-15T04:15:47;5.45;;;4.95;;
10711;SDS011;5407;51.234;6.804;2023-02-15T04:18:29;4.40;;;4.00;;
10711;SDS011;5407;51.234;6.804;2023-02-15T04:21:16;4.57;;;4.18;;
10711;SDS011;5407;51.234;6.804;2023-02-15T04:24:00;4.68;;;4.28;;
10711;SDS011;5407;51.234;6.804;2023-02-15T04:26:44;4.88;;;4.43;;
10711;SDS011;5407;51.234;6.804;2023-02-15T04:29:13;4.60;;;4.20;;
10711;SDS011;5407;51.234;6.804;2023-02-15T04:31:40;4.78;;;4.38;;
10711;SDS011;5407;51.234;6.804;2023-02-15T04:34:08;4.88;;;4.47;;
10711;SDS011;5407;51.234;6.804;2023-02-15T04:36:36;4.70;;;4.30;;
10711;SDS011;5407;51.234;6.804;2023-02-15T04:39:03;4.60;;;4.20;;
10711;SDS011;5407;51.234;6.804;2023-02-15T04:41:30;4.80;;;4.40;;
10711;SDS011;5407;51.234;6.804;2023-02-15T04:43:57;4.88;;;4.47;;
10711;SDS011;5407;51.234;6.804;2023-02-15T04:46:24;4.90;;;4.50;;
10711;SDS011;5407;51.234;6.804;2023-02-15T04:48:51;5.10;;;4.70;;
10711;SDS011;5407;51.234;6.804;2023-02-15T04:51:18;4.70;;;4.30;;
10711;SDS011;5407;51.234;6.804;2023-02-15T04:53:47;4.60;;;4.20;;
10711;SDS011;5407;51.234;6.804;2023-02-15T04:56:14;4.97;;;4.57;;
10711;SDS011;5407;51.234;6.804;2023-02-15T04:58:41;4.70;;;4.30;;
10711;SDS011;5407;51.234;6.804;2023-02-15T05:01:08;4.63;;;4.22;;
10711;SDS011;5407;51.234;6.804;2023-02-15T05:03:35;4.75;;;4.35;;
10711;SDS011;5407;51.234;6.804;2023-02-15T05:06:02;4.60;;;4.20;;
10711;SDS011;5407;51.234;6.804;2023-02-15T05:08:29;4.80;;;4.40;;
10711;SDS011;5407;51.234;6.804;2023-02-15T05:10:58;4.78;;;4.32;;
10711;SDS011;5407;51.234;6.804;2023-02-15T05:13:24;4.50;;;4.10;;
10711;SDS011;5407;51.234;6.804;2023-02-15T05:15:51;5.05;;;4.55;;
10711;SDS011;5407;51.234;6.804;2023-02-15T05:18:19;4.70;;;4.30;;
10711;SDS011;5407;51.234;6.804;2023-02-15T05:20:47;5.03;;;4.63;;
10711;SDS011;5407;51.234;6.804;2023-02-15T05:23:15;5.13;;;4.72;;
10711;SDS011;5407;51.234;6.804;2023-02-15T05:25:45;4.85;;;4.40;;
10711;SDS011;5407;51.234;6.804;2023-02-15T05:28:32;4.72;;;4.32;;
10711;SDS011;5407;51.234;6.804;2023-02-15T05:31:01;4.80;;;4.40;;
10711;SDS011;5407;51.234;6.804;2023-02-15T05:33:32;4.65;;;4.25;;
10711;SDS011;5407;51.234;6.804;2023-02-15T05:35:59;5.10;;;4.70;;
10711;SDS011;5407;51.234;6.804;2023-02-15T05:38:26;4.57;;;4.18;;
10711;SDS011;5407;51.234;6.804;2023-02-15T05:40:54;4.53;;;4.13;;
10711;SDS011;5407;51.234;6.804;2023-02-15T05:43:21;4.85;;;4.45;;
10711;SDS011;5407;51.234;6.804;2023-02-15T05:45:50;4.60;;;4.20;;
10711;SDS011;5407;51.234;6.804;2023-02-15T05:48:18;5.43;;;4.57;;
10711;SDS011;5407;51.234;6.804;2023-02-15T05:50:55;5.10;;;4.60;;
10711;SDS011;5407;51.234;6.804;2023-02-15T05:53:23;5.07;;;4.63;;
10711;SDS011;5407;51.234;6.804;2023-02-15T05:55:50;4.57;;;4.18;;
10711;SDS011;5407;51.234;6.804;2023-02-15T05:58:17;4.72;;;4.32;;
10711;SDS011;5407;51.234;6.804;2023-02-15T06:00:44;4.85;;;4.45;;
10711;SDS011;5407;51.234;6.804;2023-02-15T06:03:12;4.72;;;4.32;;
10711;SDS011;5407;51.234;6.804;2023-02-15T06:05:39;4.82;;;4.43;;
10711;SDS011;5407;51.234;6.804;2023-02-15T06:08:05;4.75;;;4.35;;
10711;SDS011;5407;51.234;6.804;2023-02-15T06:10:32;4.60;;;4.20;;
10711;SDS011;5407;51.234;6.804;2023-02-15T06:12:59;5.05;;;4.65;;
10711;SDS011;5407;51.234;6.804;2023-02-15T06:15:26;4.60;;;4.20;;
10711;SDS011;5407;51.234;6.804;2023-02-15T06:17:53;4.90;;;4.50;;
10711;SDS011;5407;51.234;6.804;2023-02-15T06:20:21;5.30;;;4.80;;
10711;SDS011;5407;51.234;6.804;2023-02-15T06:22:48;4.75;;;4.35;;
10711;SDS011;5407;51.234;6.804;2023-02-15T06:25:15;5.13;;;4.63;;
10711;SDS011;5407;51.234;6.804;2023-02-15T06:27:42;4.75;;;4.35;;
10711;SDS011;5407;51.234;6.804;2023-02-15T06:30:09;4.70;;;4.30;;
10711;SDS011;5407;51.234;6.804;2023-02-15T06:32:37;4.93;;;4.43;;
10711;SDS011;5407;51.234;6.804;2023-02-15T06:35:05;4.60;;;4.20;;
10711;SDS011;5407;51.234;6.804;2023-02-15T06:37:34;4.60;;;4.20;;
10711;SDS011;5407;51.234;6.804;2023-02-15T06:40:01;4.88;;;4.47;;
10711;SDS011;5407;51.234;6.804;2023-02-15T06:42:29;4.82;;;4.43;;
10711;SDS011;5407;51.234;6.804;2023-02-15T06:44:56;4.63;;;4.22;;
10711;SDS011;5407;51.234;6.804;2023-02-15T06:47:25;4.60;;;4.20;;
10711;SDS011;5407;51.234;6.804;2023-02-15T06:49:52;5.18;;;4.70;;
10711;SDS011;5407;51.234;6.804;2023-02-15T06:52:18;5.07;;;4.57;;
10711;SDS011;5407;51.234;6.804;2023-02-15T06:54:47;5.30;;;4.80;;
10711;SDS011;5407;51.234;6.804;2023-02-15T06:57:13;4.32;;;4.00;;
10711;SDS011;5407;51.234;6.804;2023-02-15T06:59:40;4.80;;;4.40;;
10711;SDS011;5407;51.234;6.804;2023-02-15T07:02:07;4.53;;;4.13;;
10711;SDS011;5407;51.234;6.804;2023-02-15T07:04:34;5.25;;;4.75;;
10711;SDS011;5407;51.234;6.804;2023-02-15T07:07:01;4.70;;;4.30;;
10711;SDS011;5407;51.234;6.804;2023-02-15T07:09:28;4.75;;;4.25;;
10711;SDS011;5407;51.234;6.804;2023-02-15T07:11:56;4.53;;;4.13;;
10711;SDS011;5407;51.234;6.804;2023-02-15T07:14:41;4.30;;;4.00;;
10711;SDS011;5407;51.234;6.804;2023-02-15T07:17:08;4.60;;;4.20;;
10711;SDS011;5407;51.234;6.804;2023-02-15T07:19:35;4.53;;;4.13;;
10711;SDS011;5407;51.234;6.804;2023-02-15T07:22:02;4.70;;;4.30;;
10711;SDS011;5407;51.234;6.804;2023-02-15T07:24:30;4.97;;;4.18;;
10711;SDS011;5407;51.234;6.804;2023-02-15T07:26:58;4.15;;;3.75;;
10711;SDS011;5407;51.234;6.804;2023-02-15T07:29:25;4.45;;;4.05;;
10711;SDS011;5407;51.234;6.804;2023-02-15T07:31:52;4.68;;;4.28;;
10711;SDS011;5407;51.234;6.804;2023-02-15T07:34:19;4.30;;;3.95;;
10711;SDS011;5407;51.234;6.804;2023-02-15T07:36:45;4.60;;;4.20;;
10711;SDS011;5407;51.234;6.804;2023-02-15T07:39:12;4.53;;;4.13;;
10711;SDS011;5407;51.234;6.804;2023-02-15T07:41:39;4.15;;;3.78;;
10711;SDS011;5407;51.234;6.804;2023-02-15T07:44:12;4.38;;;3.97;;
10711;SDS011;5407;51.234;6.804;2023-02-15T07:46:40;4.15;;;3.80;;
10711;SDS011;5407;51.234;6.804;2023-02-15T07:49:07;4.65;;;4.25;;
10711;SDS011;5407;51.234;6.804;2023-02-15T07:51:34;4.55;;;3.63;;
10711;SDS011;5407;51.234;6.804;2023-02-15T07:54:01;4.45;;;4.05;;
10711;SDS011;5407;51.234;6.804;2023-02-15T07:56:28;4.50;;;4.10;;
10711;SDS011;5407;51.234;6.804;2023-02-15T07:58:55;4.75;;;4.35;;
10711;SDS011;5407;51.234;6.804;2023-02-15T08:01:25;4.43;;;4.03;;
10711;SDS011;5407;51.234;6.804;2023-02-15T08:03:53;4.63;;;4.22;;
10711;SDS011;5407;51.234;6.804;2023-02-15T08:06:21;4.63;;;4.22;;
10711;SDS011;5407;51.234;6.804;2023-02-15T08:08:49;4.20;;;3.80;;
10711;SDS011;5407;51.234;6.804;2023-02-15T08:11:17;4.47;;;4.07;;
10711;SDS011;5407;51.234;6.804;2023-02-15T08:13:55;4.18;;;3.88;;
10711;SDS011;5407;51.234;6.804;2023-02-15T08:16:26;4.70;;;4.20;;
10711;SDS011;5407;51.234;6.804;2023-02-15T08:18:56;4.13;;;3.83;;
10711;SDS011;5407;51.234;6.804;2023-02-15T08:21:25;4.68;;;4.18;;
10711;SDS011;5407;51.234;6.804;2023-02-15T08:23:53;4.65;;;4.20;;
10711;SDS011;5407;51.234;6.804;2023-02-15T08:26:21;4.40;;;4.00;;
10711;SDS011;5407;51.234;6.804;2023-02-15T08:28:48;4.18;;;3.78;;
10711;SDS011;5407;51.234;6.804;2023-02-15T08:31:15;4.30;;;3.90;;
10711;SDS011;5407;51.234;6.804;2023-02-15T08:33:44;4.18;;;3.83;;
10711;SDS011;5407;51.234;6.804;2023-02-15T08:36:14;4.47;;;4.07;;
10711;SDS011;5407;51.234;6.804;2023-02-15T08:38:42;4.05;;;3.75;;
10711;SDS011;5407;51.234;6.804;2023-02-15T08:41:13;4.30;;;3.50;;
10711;SDS011;5407;51.234;6.804;2023-02-15T08:43:41;4.25;;;3.85;;
10711;SDS011;5407;51.234;6.804;2023-02-15T08:46:09;4.00;;;3.60;;
10711;SDS011;5407;51.234;6.804;2023-02-15T08:48:36;4.35;;;3.95;;
10711;SDS011;5407;51.234;6.804;2023-02-15T08:51:06;3.95;;;3.65;;
10711;SDS011;5407;51.234;6.804;2023-02-15T08:53:35;8.02;;;3.67;;
10711;SDS011;5407;51.234;6.804;2023-02-15T08:56:03;3.80;;;3.50;;
10711;SDS011;5407;51.234;6.804;2023-02-15T08:58:30;4.88;;;3.67;;
10711;SDS011;5407;51.234;6.804;2023-02-15T09:00:57;4.18;;;3.78;;
10711;SDS011;5407;51.234;6.804;2023-02-15T09:03:24;4.85;;;3.67;;
10711;SDS011;5407;51.234;6.804;2023-02-15T09:05:56;4.40;;;4.00;;
10711;SDS011;5407;51.234;6.804;2023-02-15T09:08:25;3.95;;;3.55;;
10711;SDS011;5407;51.234;6.804;2023-02-15T09:10:52;4.20;;;3.80;;
10711;SDS011;5407;51.234;6.804;2023-02-15T09:13:19;4.07;;;3.65;;
10711;SDS011;5407;51.234;6.804;2023-02-15T09:15:46;7.47;;;3.70;;
10711;SDS011;5407;51.234;6.804;2023-02-15T09:18:13;4.05;;;3.70;;
10711;SDS011;5407;51.234;6.804;2023-02-15T09:20:42;4.07;;;3.78;;
10711;SDS011;5407;51.234;6.804;2023-02-15T09:23:10;3.70;;;3.40;;
10711;SDS011;5407;51.234;6.804;2023-02-15T09:25:38;4.38;;;3.97;;
10711;SDS011;5407;51.234;6.804;2023-02-15T09:28:05;4.30;;;3.88;;
10711;SDS011;5407;51.234;6.804;2023-02-15T09:30:32;4.13;;;3.72;;
10711;SDS011;5407;51.234;6.804;2023-02-15T09:32:59;4.32;;;3.90;;
10711;SDS011;5407;51.234;6.804;2023-02-15T09:35:26;4.13;;;3.75;;
10711;SDS011;5407;51.234;6.804;2023-02-15T09:37:54;4.60;;;3.90;;
10711;SDS011;5407;51.234;6.804;2023-02-15T09:40:21;5.90;;;3.50;;
10711;SDS011;5407;51.234;6.804;2023-02-15T09:42:56;4.32;;;3.92;;
10711;SDS011;5407;51.234;6.804;2023-02-15T09:45:43;5.75;;;3.80;;
10711;SDS011;5407;51.234;6.804;2023-02-15T09:48:26;5.65;;;3.78;;
10711;SDS011;5407;51.234;6.804;2023-02-15T09:51:09;5.18;;;3.65;;
10711;SDS011;5407;51.234;6.804;2023-02-15T09:54:02;5.78;;;3.95;;
10711;SDS011;5407;51.234;6.804;2023-02-15T09:56:39;4.80;;;3.35;;
10711;SDS011;5407;51.234;6.804;2023-02-15T09:59:15;3.70;;;3.40;;
10711;SDS011;5407;51.234;6.804;2023-02-15T10:01:54;4.13;;;3.72;;
10711;SDS011;5407;51.234;6.804;2023-02-15T10:04:33;4.60;;;3.58;;
10711;SDS011;5407;51.234;6.804;2023-02-15T10:07:14;4.30;;;3.17;;
10711;SDS011;5407;51.234;6.804;2023-02-15T10:09:56;4.55;;;3.80;;
10711;SDS011;5407;51.234;6.804;2023-02-15T10:12:43;5.10;;;3.63;;
10711;SDS011;5407;51.234;6.804;2023-02-15T10:15:23;3.67;;;3.35;;
10711;SDS011;5407;51.234;6.804;2023-02-15T10:18:01;3.70;;;3.40;;
10711;SDS011;5407;51.234;6.804;2023-02-15T10:20:40;3.70;;;3.30;;
10711;SDS011;5407;51.234;6.804;2023-02-15T10:23:21;3.55;;;3.25;;
10711;SDS011;5407;51.234;6.804;2023-02-15T10:26:12;3.40;;;3.10;;
10711;SDS011;5407;51.234;6.804;2023-02-15T10:28:45;3.75;;;3.35;;
10711;SDS011;5407;51.234;6.804;2023-02-15T10:31:20;3.80;;;3.30;;
10711;SDS011;5407;51.234;6.804;2023-02-15T10:33:52;3.65;;;3.25;;
10711;SDS011;5407;51.234;6.804;2023-02-15T10:36:32;3.38;;;3.08;;
10711;SDS011;5407;51.234;6.804;2023-02-15T10:39:12;3.63;;;3.33;;
10711;SDS011;5407;51.234;6.804;2023-02-15T10:41:50;3.45;;;3.15;;
10711;SDS011;5407;51.234;6.804;2023-02-15T10:44:29;3.60;;;3.30;;
10711;SDS011;5407;51.234;6.804;2023-02-15T10:47:20;3.97;;;3.60;;
10711;SDS011;5407;51.234;6.804;2023-02-15T10:50:17;3.90;;;3.50;;
10711;SDS011;5407;51.234;6.804;2023-02-15T10:52:59;3.67;;;3.38;;
10711;SDS011;5407;51.234;6.804;2023-02-15T10:55:43;3.55;;;3.20;;
10711;SDS011;5407;51.234;6.804;2023-02-15T10:58:22;5.07;;;3.30;;
10711;SDS011;5407;51.234;6.804;2023-02-15T11:01:00;3.25;;;2.97;;
10711;SDS011;5407;51.234;6.804;2023-02-15T11:03:41;4.57;;;3.55;;
10711;SDS011;5407;51.234;6.804;2023-02-15T11:06:25;3.60;;;3.30;;
10711;SDS011;5407;51.234;6.804;2023-02-15T11:08:54;3.35;;;3.03;;
10711;SDS011;5407;51.234;6.804;2023-02-15T11:11:24;3.63;;;3.15;;
10711;SDS011;5407;51.234;6.804;2023-02-15T11:13:56;3.67;;;3.38;;
10711;SDS011;5407;51.234;6.804;2023-02-15T11:16:29;3.72;;;3.40;;
10711;SDS011;5407;51.234;6.804;2023-02-15T11:19:03;3.22;;;2.92;;
10711;SDS011;5407;51.234;6.804;2023-02-15T11:21:38;3.45;;;3.17;;
10711;SDS011;5407;51.234;6.804;2023-02-15T11:24:09;5.13;;;3.55;;
10711;SDS011;5407;51.234;6.804;2023-02-15T11:26:39;5.80;;;3.08;;
10711;SDS011;5407;51.234;6.804;2023-02-15T11:29:10;3.50;;;3.20;;
10711;SDS011;5407;51.234;6.804;2023-02-15T11:31:42;4.35;;;3.42;;
10711;SDS011;5407;51.234;6.804;2023-02-15T11:34:13;3.85;;;2.92;;
10711;SDS011;5407;51.234;6.804;2023-02-15T11:36:45;2.80;;;2.60;;
10711;SDS011;5407;51.234;6.804;2023-02-15T11:39:16;3.47;;;3.17;;
10711;SDS011;5407;51.234;6.804;2023-02-15T11:41:45;2.97;;;2.78;;
10711;SDS011;5407;51.234;6.804;2023-02-15T11:44:18;3.20;;;2.92;;
10711;SDS011;5407;51.234;6.804;2023-02-15T11:46:48;3.30;;;3.00;;
10711;SDS011;5407;51.234;6.804;2023-02-15T11:49:20;2.90;;;2.70;;
10711;SDS011;5407;51.234;6.804;2023-02-15T11:51:50;2.95;;;2.75;;
10711;SDS011;5407;51.234;6.804;2023-02-15T11:54:19;3.00;;;2.80;;
10711;SDS011;5407;51.234;6.804;2023-02-15T11:56:50;3.28;;;2.97;;
10711;SDS011;5407;51.234;6.804;2023-02-15T11:59:18;3.38;;;2.50;;
10711;SDS011;5407;51.234;6.804;2023-02-15T12:01:53;4.85;;;2.80;;
10711;SDS011;5407;51.234;6.804;2023-02-15T12:04:22;3.00;;;2.70;;
10711;SDS011;5407;51.234;6.804;2023-02-15T12:06:53;2.80;;;2.60;;
10711;SDS011;5407;51.234;6.804;2023-02-15T12:09:27;3.17;;;2.65;;
10711;SDS011;5407;51.234;6.804;2023-02-15T12:14:48;3.58;;;2.60;;
10711;SDS011;5407;51.234;6.804;2023-02-15T12:17:17;2.50;;;2.30;;
10711;SDS011;5407;51.234;6.804;2023-02-15T12:19:45;3.15;;;2.63;;
10711;SDS011;5407;51.234;6.804;2023-02-15T12:22:20;2.90;;;2.70;;
10711;SDS011;5407;51.234;6.804;2023-02-15T12:24:50;2.70;;;2.50;;
10711;SDS011;5407;51.234;6.804;2023-02-15T12:27:21;3.50;;;2.40;;
10711;SDS011;5407;51.234;6.804;2023-02-15T12:29:51;2.88;;;2.65;;
10711;SDS011;5407;51.234;6.804;2023-02-15T12:32:22;2.60;;;2.40;;
10711;SDS011;5407;51.234;6.804;2023-02-15T12:34:54;2.40;;;2.20;;
10711;SDS011;5407;51.234;6.804;2023-02-15T12:37:27;2.70;;;2.50;;
10711;SDS011;5407;51.234;6.804;2023-02-15T12:39:57;2.58;;;2.38;;
10711;SDS011;5407;51.234;6.804;2023-02-15T12:42:26;2.67;;;2.47;;
10711;SDS011;5407;51.234;6.804;2023-02-15T12:44:56;3.83;;;2.67;;
10711;SDS011;5407;51.234;6.804;2023-02-15T12:47:26;2.70;;;2.50;;
10711;SDS011;5407;51.234;6.804;2023-02-15T12:50:13;2.92;;;2.67;;
10711;SDS011;5407;51.234;6.804;2023-02-15T12:52:47;2.85;;;2.60;;
10711;SDS011;5407;51.234;6.804;2023-02-15T12:55:20;3.53;;;2.53;;
10711;SDS011;5407;51.234;6.804;2023-02-15T12:58:04;2.80;;;2.60;;
10711;SDS011;5407;51.234;6.804;2023-02-15T13:00:32;3.05;;;2.75;;
10711;SDS011;5407;51.234;6.804;2023-02-15T13:02:59;2.50;;;2.30;;
10711;SDS011;5407;51.234;6.804;2023-02-15T13:05:30;2.53;;;2.33;;
10711;SDS011;5407;51.234;6.804;2023-02-15T13:08:01;3.20;;;2.47;;
10711;SDS011;5407;51.234;6.804;2023-02-15T13:10:31;6.05;;;2.80;;
10711;SDS011;5407;51.234;6.804;2023-02-15T13:13:02;12.48;;;3.53;;
10711;SDS011;5407;51.234;6.804;2023-02-15T13:15:36;79.95;;;6.68;;
10711;SDS011;5407;51.234;6.804;2023-02-15T13:18:10;15.63;;;7.88;;
10711;SDS011;5407;51.234;6.804;2023-02-15T13:20:43;13.27;;;8.60;;
10711;SDS011;5407;51.234;6.804;2023-02-15T13:23:15;10.65;;;8.13;;
10711;SDS011;5407;51.234;6.804;2023-02-15T13:25:50;10.35;;;8.43;;
10711;SDS011;5407;51.234;6.804;2023-02-15T13:28:18;10.98;;;8.52;;
10711;SDS011;5407;51.234;6.804;2023-02-15T13:30:49;11.43;;;8.48;;
10711;SDS011;5407;51.234;6.804;2023-02-15T13:33:19;11.18;;;8.15;;
10711;SDS011;5407;51.234;6.804;2023-02-15T13:35:56;13.10;;;8.85;;
10711;SDS011;5407;51.234;6.804;2023-02-15T13:38:44;10.57;;;8.35;;
10711;SDS011;5407;51.234;6.804;2023-02-15T13:41:16;9.93;;;8.13;;
10711;SDS011;5407;51.234;6.804;2023-02-15T13:43:48;12.07;;;8.27;;
10711;SDS011;5407;51.234;6.804;2023-02-15T13:46:36;11.90;;;8.40;;
10711;SDS011;5407;51.234;6.804;2023-02-15T13:49:14;11.52;;;8.77;;
10711;SDS011;5407;51.234;6.804;2023-02-15T13:51:51;10.55;;;8.93;;
10711;SDS011;5407;51.234;6.804;2023-02-15T13:54:28;12.40;;;8.77;;
10711;SDS011;5407;51.234;6.804;2023-02-15T13:57:15;10.90;;;8.52;;
10711;SDS011;5407;51.234;6.804;2023-02-15T13:59:59;10.25;;;8.85;;
10711;SDS011;5407;51.234;6.804;2023-02-15T14:02:52;10.88;;;8.48;;
10711;SDS011;5407;51.234;6.804;2023-02-15T14:08:37;10.95;;;8.20;;
10711;SDS011;5407;51.234;6.804;2023-02-15T14:11:06;11.40;;;8.63;;
10711;SDS011;5407;51.234;6.804;2023-02-15T14:13:44;9.52;;;8.30;;
10711;SDS011;5407;51.234;6.804;2023-02-15T14:16:26;11.07;;;8.80;;
10711;SDS011;5407;51.234;6.804;2023-02-15T14:19:04;12.07;;;8.60;;
10711;SDS011;5407;51.234;6.804;2023-02-15T14:21:42;12.75;;;8.85;;
10711;SDS011;5407;51.234;6.804;2023-02-15T14:24:17;12.98;;;8.95;;
10711;SDS011;5407;51.234;6.804;2023-02-15T14:26:55;12.88;;;8.55;;
10711;SDS011;5407;51.234;6.804;2023-02-15T14:29:28;12.05;;;8.50;;
10711;SDS011;5407;51.234;6.804;2023-02-15T14:32:08;13.52;;;9.30;;
10711;SDS011;5407;51.234;6.804;2023-02-15T14:34:42;13.30;;;9.13;;
10711;SDS011;5407;51.234;6.804;2023-02-15T14:37:13;14.15;;;9.32;;
10711;SDS011;5407;51.234;6.804;2023-02-15T14:39:51;13.70;;;9.98;;
10711;SDS011;5407;51.234;6.804;2023-02-15T14:42:40;12.10;;;8.90;;
10711;SDS011;5407;51.234;6.804;2023-02-15T14:45:17;12.50;;;9.73;;
10711;SDS011;5407;51.234;6.804;2023-02-15T14:47:48;13.75;;;9.27;;
10711;SDS011;5407;51.234;6.804;2023-02-15T14:50:36;10.70;;;8.75;;
10711;SDS011;5407;51.234;6.804;2023-02-15T14:53:22;12.05;;;8.85;;
10711;SDS011;5407;51.234;6.804;2023-02-15T14:56:19;13.35;;;8.68;;
10711;SDS011;5407;51.234;6.804;2023-02-15T14:59:11;11.63;;;8.60;;
10711;SDS011;5407;51.234;6.804;2023-02-15T15:01:41;11.95;;;8.82;;
10711;SDS011;5407;51.234;6.804;2023-02-15T15:04:22;10.75;;;8.48;;
10711;SDS011;5407;51.234;6.804;2023-02-15T15:06:57;13.07;;;9.10;;
10711;SDS011;5407;51.234;6.804;2023-02-15T15:09:34;12.65;;;8.98;;
10711;SDS011;5407;51.234;6.804;2023-02-15T15:12:14;13.30;;;8.88;;
10711;SDS011;5407;51.234;6.804;2023-02-15T15:14:56;12.95;;;9.40;;
10711;SDS011;5407;51.234;6.804;2023-02-15T15:20:38;10.73;;;8.50;;
10711;SDS011;5407;51.234;6.804;2023-02-15T15:28:56;12.32;;;9.27;;
10711;SDS011;5407;51.234;6.804;2023-02-15T15:31:25;13.32;;;9.60;;
10711;SDS011;5407;51.234;6.804;2023-02-15T15:34:07;12.52;;;10.38;;
10711;SDS011;5407;51.234;6.804;2023-02-15T15:37:12;12.52;;;8.57;;
10711;SDS011;5407;51.234;6.804;2023-02-15T15:43:13;7.88;;;6.80;;
10711;SDS011;5407;51.234;6.804;2023-02-15T15:49:01;10.30;;;6.43;;
10711;SDS011;5407;51.234;6.804;2023-02-15T15:51:34;7.60;;;6.18;;
10711;SDS011;5407;51.234;6.804;2023-02-15T15:54:05;8.13;;;6.22;;
10711;SDS011;5407;51.234;6.804;2023-02-15T15:56:33;6.75;;;5.88;;
10711;SDS011;5407;51.234;6.804;2023-02-15T15:59:02;7.97;;;6.28;;
10711;SDS011;5407;51.234;6.804;2023-02-15T16:01:35;6.63;;;5.43;;